sensor_id;sensor_type;location;lat;lon;timestamp;P1;durP1;ratioP1;P2;durP2;ratioP2
11490;SDS011;5802;52.832;4.758;2023-12-20T00:00:19;5.40;;;1.63;;
11490;SDS011;5802;52.832;4.758;2023-12-20T00:02:46;2.97;;;1.90;;
11490;SDS011;5802;52.832;4.758;2023-12-20T00:05:13;4.80;;;1.58;;
11490;SDS011;5802;52.832;4.758;2023-12-20T00:07:40;3.50;;;1.25;;
11490;SDS011;5802;52.832;4.758;2023-12-20T00:10:07;2.22;;;1.40;;
11490;SDS011;5802;52.832;4.758;2023-12-20T00:12:34;3.10;;;1.27;;
11490;SDS011;5802;52.832;4.758;2023-12-20T00:15:03;3.00;;;1.35;;
11490;SDS011;5802;52.832;4.758;2023-12-20T00:17:30;2.58;;;1.50;;
11490;SDS011;5802;52.832;4.758;2023-12-20T00:19:57;2.92;;;1.60;;
11490;SDS011;5802;52.832;4.758;2023-12-20T00:22:24;3.25;;;1.40;;
11490;SDS011;5802;52.832;4.758;2023-12-20T00:24:50;2.80;;;1.40;;
11490;SDS011;5802;52.832;4.758;2023-12-20T00:27:17;2.67;;;1.40;;
11490;SDS011;5802;52.832;4.758;2023-12-20T00:29:44;2.90;;;1.42;;
11490;SDS011;5802;52.832;4.758;2023-12-20T00:32:16;3.80;;;1.40;;
11490;SDS011;5802;52.832;4.758;2023-12-20T00:34:43;3.65;;;1.50;;
11490;SDS011;5802;52.832;4.758;2023-12-20T00:37:10;2.30;;;1.20;;
11490;SDS011;5802;52.832;4.758;2023-12-20T00:39:37;4.47;;;1.33;;
11490;SDS011;5802;52.832;4.758;2023-12-20T00:42:04;2.67;;;1.45;;
11490;SDS011;5802;52.832;4.758;2023-12-20T00:44:31;3.08;;;1.52;;
11490;SDS011;5802;52.832;4.758;2023-12-20T00:46:58;7.40;;;1.85;;
11490;SDS011;5802;52.832;4.758;2023-12-20T00:49:26;4.18;;;1.40;;
11490;SDS011;5802;52.832;4.758;2023-12-20T00:51:53;6.50;;;1.63;;
11490;SDS011;5802;52.832;4.758;2023-12-20T00:54:19;4.72;;;1.50;;
11490;SDS011;5802;52.832;4.758;2023-12-20T00:56:46;3.28;;;1.38;;
11490;SDS011;5802;52.832;4.758;2023-12-20T00:59:13;3.10;;;1.20;;
11490;SDS011;5802;52.832;4.758;2023-12-20T01:01:41;4.82;;;1.38;;
11490;SDS011;5802;52.832;4.758;2023-12-20T01:04:07;3.03;;;1.45;;
11490;SDS011;5802;52.832;4.758;2023-12-20T01:06:36;5.80;;;1.50;;
11490;SDS011;5802;52.832;4.758;2023-12-20T01:09:03;6.43;;;1.60;;
11490;SDS011;5802;52.832;4.758;2023-12-20T01:11:30;3.35;;;1.42;;
11490;SDS011;5802;52.832;4.758;2023-12-20T01:13:57;5.85;;;1.50;;
11490;SDS011;5802;52.832;4.758;2023-12-20T01:16:24;2.92;;;1.40;;
11490;SDS011;5802;52.832;4.758;2023-12-20T01:18:51;3.88;;;1.40;;
11490;SDS011;5802;52.832;4.758;2023-12-20T01:21:17;2.58;;;1.40;;
11490;SDS011;5802;52.832;4.758;2023-12-20T01:23:45;2.45;;;1.30;;
11490;SDS011;5802;52.832;4.758;2023-12-20T01:26:11;5.82;;;1.50;;
11490;SDS011;5802;52.832;4.758;2023-12-20T01:28:38;4.03;;;1.30;;
11490;SDS011;5802;52.832;4.758;2023-12-20T01:31:05;3.05;;;1.95;;
11490;SDS011;5802;52.832;4.758;2023-12-20T01:33:32;5.25;;;1.45;;
11490;SDS011;5802;52.832;4.758;2023-12-20T01:35:59;4.22;;;1.70;;
11490;SDS011;5802;52.832;4.758;2023-12-20T01:38:26;4.85;;;1.58;;
11490;SDS011;5802;52.832;4.758;2023-12-20T01:40:54;4.15;;;1.73;;
11490;SDS011;5802;52.832;4.758;2023-12-20T01:43:21;5.47;;;1.50;;
11490;SDS011;5802;52.832;4.758;2023-12-20T01:45:48;3.75;;;1.40;;
11490;SDS011;5802;52.832;4.758;2023-12-20T01:48:15;3.75;;;1.45;;
11490;SDS011;5802;52.832;4.758;2023-12-20T01:50:43;3.72;;;1.30;;
11490;SDS011;5802;52.832;4.758;2023-12-20T01:53:11;4.75;;;1.50;;
11490;SDS011;5802;52.832;4.758;2023-12-20T01:55:40;4.20;;;1.65;;
11490;SDS011;5802;52.832;4.758;2023-12-20T01:58:08;3.40;;;1.33;;
11490;SDS011;5802;52.832;4.758;2023-12-20T02:00:36;3.05;;;1.48;;
11490;SDS011;5802;52.832;4.758;2023-12-20T02:03:03;3.67;;;1.40;;
11490;SDS011;5802;52.832;4.758;2023-12-20T02:05:31;2.85;;;1.40;;
11490;SDS011;5802;52.832;4.758;2023-12-20T02:08:00;2.38;;;1.20;;
11490;SDS011;5802;52.832;4.758;2023-12-20T02:10:26;2.33;;;1.33;;
11490;SDS011;5802;52.832;4.758;2023-12-20T02:12:54;2.72;;;1.33;;
11490;SDS011;5802;52.832;4.758;2023-12-20T02:15:22;2.72;;;1.30;;
11490;SDS011;5802;52.832;4.758;2023-12-20T02:17:49;3.83;;;1.33;;
11490;SDS011;5802;52.832;4.758;2023-12-20T02:20:16;3.17;;;1.63;;
11490;SDS011;5802;52.832;4.758;2023-12-20T02:22:45;2.70;;;1.35;;
11490;SDS011;5802;52.832;4.758;2023-12-20T02:25:12;4.30;;;1.48;;
11490;SDS011;5802;52.832;4.758;2023-12-20T02:27:38;3.17;;;1.00;;
11490;SDS011;5802;52.832;4.758;2023-12-20T02:30:06;4.15;;;1.40;;
11490;SDS011;5802;52.832;4.758;2023-12-20T02:32:33;5.00;;;1.27;;
11490;SDS011;5802;52.832;4.758;2023-12-20T02:35:00;3.83;;;1.33;;
11490;SDS011;5802;52.832;4.758;2023-12-20T02:37:27;4.38;;;1.48;;
11490;SDS011;5802;52.832;4.758;2023-12-20T02:39:55;2.85;;;1.30;;
11490;SDS011;5802;52.832;4.758;2023-12-20T02:42:22;3.53;;;1.40;;
11490;SDS011;5802;52.832;4.758;2023-12-20T02:44:49;3.10;;;1.45;;
11490;SDS011;5802;52.832;4.758;2023-12-20T02:47:16;6.20;;;1.52;;
11490;SDS011;5802;52.832;4.758;2023-12-20T02:49:43;3.42;;;1.50;;
11490;SDS011;5802;52.832;4.758;2023-12-20T02:52:09;2.10;;;1.13;;
11490;SDS011;5802;52.832;4.758;2023-12-20T02:54:36;2.40;;;0.90;;
11490;SDS011;5802;52.832;4.758;2023-12-20T02:57:05;3.15;;;1.30;;
11490;SDS011;5802;52.832;4.758;2023-12-20T02:59:32;4.40;;;1.67;;
11490;SDS011;5802;52.832;4.758;2023-12-20T03:01:59;3.65;;;1.45;;
11490;SDS011;5802;52.832;4.758;2023-12-20T03:04:26;3.58;;;1.30;;
11490;SDS011;5802;52.832;4.758;2023-12-20T03:06:53;4.45;;;1.63;;
11490;SDS011;5802;52.832;4.758;2023-12-20T03:09:20;3.92;;;1.25;;
11490;SDS011;5802;52.832;4.758;2023-12-20T03:11:46;2.17;;;1.20;;
11490;SDS011;5802;52.832;4.758;2023-12-20T03:14:15;2.42;;;1.20;;
11490;SDS011;5802;52.832;4.758;2023-12-20T03:16:43;2.78;;;1.20;;
11490;SDS011;5802;52.832;4.758;2023-12-20T03:19:13;3.75;;;1.50;;
11490;SDS011;5802;52.832;4.758;2023-12-20T03:21:41;3.17;;;1.58;;
11490;SDS011;5802;52.832;4.758;2023-12-20T03:24:08;3.35;;;1.20;;
11490;SDS011;5802;52.832;4.758;2023-12-20T03:26:34;2.58;;;1.33;;
11490;SDS011;5802;52.832;4.758;2023-12-20T03:29:01;3.28;;;1.30;;
11490;SDS011;5802;52.832;4.758;2023-12-20T03:31:29;2.65;;;1.00;;
11490;SDS011;5802;52.832;4.758;2023-12-20T03:33:56;2.85;;;1.30;;
11490;SDS011;5802;52.832;4.758;2023-12-20T03:36:23;3.88;;;1.20;;
11490;SDS011;5802;52.832;4.758;2023-12-20T03:38:50;3.42;;;1.33;;
11490;SDS011;5802;52.832;4.758;2023-12-20T03:41:17;2.97;;;1.35;;
11490;SDS011;5802;52.832;4.758;2023-12-20T03:43:43;4.13;;;1.30;;
11490;SDS011;5802;52.832;4.758;2023-12-20T03:46:10;2.65;;;1.30;;
11490;SDS011;5802;52.832;4.758;2023-12-20T03:48:38;4.22;;;1.23;;
11490;SDS011;5802;52.832;4.758;2023-12-20T03:51:05;2.78;;;1.30;;
11490;SDS011;5802;52.832;4.758;2023-12-20T03:53:32;2.70;;;1.20;;
11490;SDS011;5802;52.832;4.758;2023-12-20T03:55:59;2.42;;;1.23;;
11490;SDS011;5802;52.832;4.758;2023-12-20T03:58:26;2.55;;;1.30;;
11490;SDS011;5802;52.832;4.758;2023-12-20T04:00:53;3.33;;;1.58;;
11490;SDS011;5802;52.832;4.758;2023-12-20T04:03:19;3.20;;;1.30;;
11490;SDS011;5802;52.832;4.758;2023-12-20T04:05:48;2.00;;;1.05;;
11490;SDS011;5802;52.832;4.758;2023-12-20T04:08:14;2.83;;;1.08;;
11490;SDS011;5802;52.832;4.758;2023-12-20T04:10:41;3.22;;;1.13;;
11490;SDS011;5802;52.832;4.758;2023-12-20T04:13:08;2.92;;;1.02;;
11490;SDS011;5802;52.832;4.758;2023-12-20T04:15:35;2.47;;;1.20;;
11490;SDS011;5802;52.832;4.758;2023-12-20T04:18:02;1.85;;;1.15;;
11490;SDS011;5802;52.832;4.758;2023-12-20T04:20:29;2.65;;;1.15;;
11490;SDS011;5802;52.832;4.758;2023-12-20T04:22:57;2.67;;;1.27;;
11490;SDS011;5802;52.832;4.758;2023-12-20T04:25:26;2.60;;;1.00;;
11490;SDS011;5802;52.832;4.758;2023-12-20T04:27:53;3.65;;;1.40;;
11490;SDS011;5802;52.832;4.758;2023-12-20T04:30:20;3.58;;;1.45;;
11490;SDS011;5802;52.832;4.758;2023-12-20T04:32:46;2.67;;;1.20;;
11490;SDS011;5802;52.832;4.758;2023-12-20T04:35:13;2.67;;;1.17;;
11490;SDS011;5802;52.832;4.758;2023-12-20T04:37:40;2.42;;;1.40;;
11490;SDS011;5802;52.832;4.758;2023-12-20T04:40:09;3.58;;;1.33;;
11490;SDS011;5802;52.832;4.758;2023-12-20T04:42:36;3.03;;;1.33;;
11490;SDS011;5802;52.832;4.758;2023-12-20T04:45:03;2.20;;;1.20;;
11490;SDS011;5802;52.832;4.758;2023-12-20T04:47:31;2.35;;;1.00;;
11490;SDS011;5802;52.832;4.758;2023-12-20T04:49:58;3.72;;;1.40;;
11490;SDS011;5802;52.832;4.758;2023-12-20T04:52:25;2.63;;;1.27;;
11490;SDS011;5802;52.832;4.758;2023-12-20T04:54:52;2.97;;;1.42;;
11490;SDS011;5802;52.832;4.758;2023-12-20T04:57:20;3.28;;;1.40;;
11490;SDS011;5802;52.832;4.758;2023-12-20T04:59:47;2.55;;;1.15;;
11490;SDS011;5802;52.832;4.758;2023-12-20T05:02:14;3.65;;;1.40;;
11490;SDS011;5802;52.832;4.758;2023-12-20T05:04:41;3.03;;;1.30;;
11490;SDS011;5802;52.832;4.758;2023-12-20T05:07:07;3.85;;;1.25;;
11490;SDS011;5802;52.832;4.758;2023-12-20T05:09:34;2.78;;;1.33;;
11490;SDS011;5802;52.832;4.758;2023-12-20T05:12:02;1.67;;;1.05;;
11490;SDS011;5802;52.832;4.758;2023-12-20T05:14:30;2.63;;;1.35;;
11490;SDS011;5802;52.832;4.758;2023-12-20T05:16:57;2.90;;;1.10;;
11490;SDS011;5802;52.832;4.758;2023-12-20T05:19:24;4.50;;;1.60;;
11490;SDS011;5802;52.832;4.758;2023-12-20T05:21:51;2.33;;;1.05;;
11490;SDS011;5802;52.832;4.758;2023-12-20T05:24:18;2.55;;;1.15;;
11490;SDS011;5802;52.832;4.758;2023-12-20T05:26:45;3.30;;;1.48;;
11490;SDS011;5802;52.832;4.758;2023-12-20T05:29:12;4.05;;;1.52;;
11490;SDS011;5802;52.832;4.758;2023-12-20T05:31:40;3.30;;;1.23;;
11490;SDS011;5802;52.832;4.758;2023-12-20T05:34:07;1.88;;;1.00;;
11490;SDS011;5802;52.832;4.758;2023-12-20T05:36:34;3.03;;;1.17;;
11490;SDS011;5802;52.832;4.758;2023-12-20T05:39:02;3.42;;;1.17;;
11490;SDS011;5802;52.832;4.758;2023-12-20T05:41:30;2.30;;;1.25;;
11490;SDS011;5802;52.832;4.758;2023-12-20T05:43:57;3.83;;;1.60;;
11490;SDS011;5802;52.832;4.758;2023-12-20T05:46:24;1.88;;;1.25;;
11490;SDS011;5802;52.832;4.758;2023-12-20T05:48:52;2.92;;;1.20;;
11490;SDS011;5802;52.832;4.758;2023-12-20T05:51:19;2.47;;;1.40;;
11490;SDS011;5802;52.832;4.758;2023-12-20T05:53:46;2.33;;;1.35;;
11490;SDS011;5802;52.832;4.758;2023-12-20T05:56:14;3.53;;;1.30;;
11490;SDS011;5802;52.832;4.758;2023-12-20T05:58:41;2.72;;;1.45;;
11490;SDS011;5802;52.832;4.758;2023-12-20T06:01:08;3.45;;;1.30;;
11490;SDS011;5802;52.832;4.758;2023-12-20T06:03:35;2.55;;;1.33;;
11490;SDS011;5802;52.832;4.758;2023-12-20T06:06:06;2.85;;;1.30;;
11490;SDS011;5802;52.832;4.758;2023-12-20T06:08:33;3.17;;;1.35;;
11490;SDS011;5802;52.832;4.758;2023-12-20T06:11:00;2.60;;;1.30;;
11490;SDS011;5802;52.832;4.758;2023-12-20T06:13:26;3.10;;;1.30;;
11490;SDS011;5802;52.832;4.758;2023-12-20T06:15:54;2.60;;;1.50;;
11490;SDS011;5802;52.832;4.758;2023-12-20T06:18:21;2.83;;;1.20;;
11490;SDS011;5802;52.832;4.758;2023-12-20T06:20:49;3.17;;;1.33;;
11490;SDS011;5802;52.832;4.758;2023-12-20T06:23:17;3.22;;;1.30;;
11490;SDS011;5802;52.832;4.758;2023-12-20T06:25:44;2.28;;;1.30;;
11490;SDS011;5802;52.832;4.758;2023-12-20T06:28:11;3.78;;;1.42;;
11490;SDS011;5802;52.832;4.758;2023-12-20T06:30:39;1.95;;;1.20;;
11490;SDS011;5802;52.832;4.758;2023-12-20T06:33:06;3.70;;;1.30;;
11490;SDS011;5802;52.832;4.758;2023-12-20T06:35:35;3.47;;;1.10;;
11490;SDS011;5802;52.832;4.758;2023-12-20T06:38:01;3.15;;;1.55;;
11490;SDS011;5802;52.832;4.758;2023-12-20T06:40:30;2.30;;;1.40;;
11490;SDS011;5802;52.832;4.758;2023-12-20T06:42:57;3.97;;;1.42;;
11490;SDS011;5802;52.832;4.758;2023-12-20T06:45:24;2.13;;;1.15;;
11490;SDS011;5802;52.832;4.758;2023-12-20T06:47:51;3.38;;;1.20;;
11490;SDS011;5802;52.832;4.758;2023-12-20T06:50:19;3.08;;;1.23;;
11490;SDS011;5802;52.832;4.758;2023-12-20T06:52:46;2.75;;;1.30;;
11490;SDS011;5802;52.832;4.758;2023-12-20T06:55:13;2.80;;;1.23;;
11490;SDS011;5802;52.832;4.758;2023-12-20T06:57:42;5.13;;;1.40;;
11490;SDS011;5802;52.832;4.758;2023-12-20T07:00:10;2.75;;;1.27;;
11490;SDS011;5802;52.832;4.758;2023-12-20T07:02:38;3.53;;;1.60;;
11490;SDS011;5802;52.832;4.758;2023-12-20T07:05:05;1.95;;;1.17;;
11490;SDS011;5802;52.832;4.758;2023-12-20T07:07:32;4.00;;;1.70;;
11490;SDS011;5802;52.832;4.758;2023-12-20T07:09:59;2.88;;;1.23;;
11490;SDS011;5802;52.832;4.758;2023-12-20T07:12:25;2.03;;;1.27;;
11490;SDS011;5802;52.832;4.758;2023-12-20T07:14:54;3.03;;;1.30;;
11490;SDS011;5802;52.832;4.758;2023-12-20T07:17:22;2.78;;;1.30;;
11490;SDS011;5802;52.832;4.758;2023-12-20T07:19:48;1.90;;;1.20;;
11490;SDS011;5802;52.832;4.758;2023-12-20T07:22:15;4.65;;;1.38;;
11490;SDS011;5802;52.832;4.758;2023-12-20T07:24:42;2.22;;;1.00;;
11490;SDS011;5802;52.832;4.758;2023-12-20T07:27:09;2.63;;;1.08;;
11490;SDS011;5802;52.832;4.758;2023-12-20T07:29:36;2.38;;;1.00;;
11490;SDS011;5802;52.832;4.758;2023-12-20T07:32:04;3.17;;;1.27;;
11490;SDS011;5802;52.832;4.758;2023-12-20T07:34:32;4.35;;;1.65;;
11490;SDS011;5802;52.832;4.758;2023-12-20T07:36:59;2.53;;;1.08;;
11490;SDS011;5802;52.832;4.758;2023-12-20T07:39:26;2.75;;;1.17;;
11490;SDS011;5802;52.832;4.758;2023-12-20T07:41:52;3.47;;;1.10;;
11490;SDS011;5802;52.832;4.758;2023-12-20T07:44:19;2.28;;;1.17;;
11490;SDS011;5802;52.832;4.758;2023-12-20T07:46:46;3.15;;;1.38;;
11490;SDS011;5802;52.832;4.758;2023-12-20T07:49:15;2.05;;;1.20;;
11490;SDS011;5802;52.832;4.758;2023-12-20T07:51:41;2.00;;;1.05;;
11490;SDS011;5802;52.832;4.758;2023-12-20T07:54:08;2.53;;;1.13;;
11490;SDS011;5802;52.832;4.758;2023-12-20T07:56:35;2.65;;;1.38;;
11490;SDS011;5802;52.832;4.758;2023-12-20T07:59:02;2.72;;;1.20;;
11490;SDS011;5802;52.832;4.758;2023-12-20T08:01:29;2.50;;;1.20;;
11490;SDS011;5802;52.832;4.758;2023-12-20T08:03:56;2.42;;;1.33;;
11490;SDS011;5802;52.832;4.758;2023-12-20T08:06:24;3.30;;;1.30;;
11490;SDS011;5802;52.832;4.758;2023-12-20T08:08:51;1.67;;;1.13;;
11490;SDS011;5802;52.832;4.758;2023-12-20T08:11:18;2.78;;;1.00;;
11490;SDS011;5802;52.832;4.758;2023-12-20T08:13:45;2.47;;;1.00;;
11490;SDS011;5802;52.832;4.758;2023-12-20T08:16:12;3.15;;;1.10;;
11490;SDS011;5802;52.832;4.758;2023-12-20T08:18:40;2.25;;;1.10;;
11490;SDS011;5802;52.832;4.758;2023-12-20T08:21:07;1.52;;;1.00;;
11490;SDS011;5802;52.832;4.758;2023-12-20T08:23:35;2.65;;;1.08;;
11490;SDS011;5802;52.832;4.758;2023-12-20T08:26:03;1.83;;;1.08;;
11490;SDS011;5802;52.832;4.758;2023-12-20T08:28:31;2.35;;;0.93;;
11490;SDS011;5802;52.832;4.758;2023-12-20T08:30:58;2.80;;;0.98;;
11490;SDS011;5802;52.832;4.758;2023-12-20T08:33:25;2.95;;;1.10;;
11490;SDS011;5802;52.832;4.758;2023-12-20T08:35:52;2.00;;;1.40;;
11490;SDS011;5802;52.832;4.758;2023-12-20T08:38:18;2.13;;;1.13;;
11490;SDS011;5802;52.832;4.758;2023-12-20T08:40:47;2.42;;;0.90;;
11490;SDS011;5802;52.832;4.758;2023-12-20T08:43:14;1.77;;;1.10;;
11490;SDS011;5802;52.832;4.758;2023-12-20T08:45:41;2.65;;;1.02;;
11490;SDS011;5802;52.832;4.758;2023-12-20T08:48:08;1.83;;;1.00;;
11490;SDS011;5802;52.832;4.758;2023-12-20T08:50:34;3.65;;;1.25;;
11490;SDS011;5802;52.832;4.758;2023-12-20T08:53:02;1.65;;;1.02;;
11490;SDS011;5802;52.832;4.758;2023-12-20T08:55:29;4.32;;;1.05;;
11490;SDS011;5802;52.832;4.758;2023-12-20T08:57:57;2.17;;;1.00;;
11490;SDS011;5802;52.832;4.758;2023-12-20T09:00:24;2.97;;;1.10;;
11490;SDS011;5802;52.832;4.758;2023-12-20T09:02:52;2.95;;;1.00;;
11490;SDS011;5802;52.832;4.758;2023-12-20T09:05:20;1.48;;;0.85;;
11490;SDS011;5802;52.832;4.758;2023-12-20T09:07:47;4.13;;;1.13;;
11490;SDS011;5802;52.832;4.758;2023-12-20T09:10:14;1.23;;;0.82;;
11490;SDS011;5802;52.832;4.758;2023-12-20T09:12:41;1.80;;;1.08;;
11490;SDS011;5802;52.832;4.758;2023-12-20T09:15:09;2.65;;;1.30;;
11490;SDS011;5802;52.832;4.758;2023-12-20T09:17:36;1.73;;;1.20;;
11490;SDS011;5802;52.832;4.758;2023-12-20T09:20:03;2.22;;;1.10;;
11490;SDS011;5802;52.832;4.758;2023-12-20T09:22:32;1.38;;;0.90;;
11490;SDS011;5802;52.832;4.758;2023-12-20T09:24:59;1.42;;;1.00;;
11490;SDS011;5802;52.832;4.758;2023-12-20T09:27:26;3.00;;;1.08;;
11490;SDS011;5802;52.832;4.758;2023-12-20T09:29:53;1.95;;;1.17;;
11490;SDS011;5802;52.832;4.758;2023-12-20T09:32:21;1.55;;;0.90;;
11490;SDS011;5802;52.832;4.758;2023-12-20T09:34:48;1.63;;;1.02;;
11490;SDS011;5802;52.832;4.758;2023-12-20T09:37:15;2.35;;;1.10;;
11490;SDS011;5802;52.832;4.758;2023-12-20T09:39:42;1.58;;;0.75;;
11490;SDS011;5802;52.832;4.758;2023-12-20T09:42:09;2.60;;;1.27;;
11490;SDS011;5802;52.832;4.758;2023-12-20T09:44:43;2.15;;;1.02;;
11490;SDS011;5802;52.832;4.758;2023-12-20T09:47:10;3.20;;;1.10;;
11490;SDS011;5802;52.832;4.758;2023-12-20T09:49:39;2.17;;;0.75;;
11490;SDS011;5802;52.832;4.758;2023-12-20T09:52:07;2.17;;;1.00;;
11490;SDS011;5802;52.832;4.758;2023-12-20T09:54:37;2.90;;;1.10;;
11490;SDS011;5802;52.832;4.758;2023-12-20T09:57:04;1.95;;;0.93;;
11490;SDS011;5802;52.832;4.758;2023-12-20T09:59:31;1.90;;;0.98;;
11490;SDS011;5802;52.832;4.758;2023-12-20T10:01:58;1.95;;;1.10;;
11490;SDS011;5802;52.832;4.758;2023-12-20T10:04:28;1.52;;;0.82;;
11490;SDS011;5802;52.832;4.758;2023-12-20T10:07:02;2.30;;;0.98;;
11490;SDS011;5802;52.832;4.758;2023-12-20T10:09:30;2.63;;;1.00;;
11490;SDS011;5802;52.832;4.758;2023-12-20T10:11:58;2.28;;;1.40;;
11490;SDS011;5802;52.832;4.758;2023-12-20T10:14:25;2.80;;;1.10;;
11490;SDS011;5802;52.832;4.758;2023-12-20T10:16:52;1.75;;;0.98;;
11490;SDS011;5802;52.832;4.758;2023-12-20T10:19:20;2.22;;;1.00;;
11490;SDS011;5802;52.832;4.758;2023-12-20T10:21:47;2.20;;;0.88;;
11490;SDS011;5802;52.832;4.758;2023-12-20T10:24:17;3.53;;;1.10;;
11490;SDS011;5802;52.832;4.758;2023-12-20T10:26:44;2.45;;;1.10;;
11490;SDS011;5802;52.832;4.758;2023-12-20T10:29:11;2.00;;;1.05;;
11490;SDS011;5802;52.832;4.758;2023-12-20T10:31:38;1.42;;;0.70;;
11490;SDS011;5802;52.832;4.758;2023-12-20T10:34:05;2.58;;;0.95;;
11490;SDS011;5802;52.832;4.758;2023-12-20T10:36:32;1.73;;;0.85;;
11490;SDS011;5802;52.832;4.758;2023-12-20T10:39:01;2.03;;;0.95;;
11490;SDS011;5802;52.832;4.758;2023-12-20T10:41:30;1.48;;;0.88;;
11490;SDS011;5802;52.832;4.758;2023-12-20T10:43:58;3.28;;;0.98;;
11490;SDS011;5802;52.832;4.758;2023-12-20T10:46:26;2.05;;;0.90;;
11490;SDS011;5802;52.832;4.758;2023-12-20T10:48:55;2.05;;;0.95;;
11490;SDS011;5802;52.832;4.758;2023-12-20T10:51:22;2.20;;;1.00;;
11490;SDS011;5802;52.832;4.758;2023-12-20T10:53:51;2.13;;;0.90;;
11490;SDS011;5802;52.832;4.758;2023-12-20T10:56:19;2.20;;;1.13;;
11490;SDS011;5802;52.832;4.758;2023-12-20T10:58:49;1.77;;;1.00;;
11490;SDS011;5802;52.832;4.758;2023-12-20T11:01:17;1.92;;;0.95;;
11490;SDS011;5802;52.832;4.758;2023-12-20T11:03:48;1.75;;;1.00;;
11490;SDS011;5802;52.832;4.758;2023-12-20T11:06:19;2.13;;;1.20;;
11490;SDS011;5802;52.832;4.758;2023-12-20T11:08:59;2.58;;;1.20;;
11490;SDS011;5802;52.832;4.758;2023-12-20T11:11:46;2.45;;;0.90;;
11490;SDS011;5802;52.832;4.758;2023-12-20T11:14:27;1.65;;;1.00;;
11490;SDS011;5802;52.832;4.758;2023-12-20T11:17:06;2.03;;;1.00;;
11490;SDS011;5802;52.832;4.758;2023-12-20T11:19:35;1.95;;;1.00;;
11490;SDS011;5802;52.832;4.758;2023-12-20T11:22:03;2.10;;;0.90;;
11490;SDS011;5802;52.832;4.758;2023-12-20T11:24:31;1.63;;;0.73;;
11490;SDS011;5802;52.832;4.758;2023-12-20T11:26:59;1.83;;;1.10;;
11490;SDS011;5802;52.832;4.758;2023-12-20T11:29:35;1.40;;;0.63;;
11490;SDS011;5802;52.832;4.758;2023-12-20T11:32:02;2.60;;;1.05;;
11490;SDS011;5802;52.832;4.758;2023-12-20T11:34:50;2.25;;;0.90;;
11490;SDS011;5802;52.832;4.758;2023-12-20T11:37:17;1.42;;;0.90;;
11490;SDS011;5802;52.832;4.758;2023-12-20T11:39:50;1.27;;;0.90;;
11490;SDS011;5802;52.832;4.758;2023-12-20T11:42:21;2.70;;;0.88;;
11490;SDS011;5802;52.832;4.758;2023-12-20T11:44:49;1.55;;;0.80;;
11490;SDS011;5802;52.832;4.758;2023-12-20T11:47:17;2.65;;;0.93;;
11490;SDS011;5802;52.832;4.758;2023-12-20T11:49:44;2.80;;;0.90;;
11490;SDS011;5802;52.832;4.758;2023-12-20T11:52:12;2.17;;;1.15;;
11490;SDS011;5802;52.832;4.758;2023-12-20T11:54:39;1.73;;;0.90;;
11490;SDS011;5802;52.832;4.758;2023-12-20T11:57:06;2.47;;;1.10;;
11490;SDS011;5802;52.832;4.758;2023-12-20T11:59:33;1.35;;;0.90;;
11490;SDS011;5802;52.832;4.758;2023-12-20T12:02:01;2.00;;;0.90;;
11490;SDS011;5802;52.832;4.758;2023-12-20T12:04:28;2.28;;;1.10;;
11490;SDS011;5802;52.832;4.758;2023-12-20T12:06:55;1.45;;;1.00;;
11490;SDS011;5802;52.832;4.758;2023-12-20T12:09:22;1.58;;;0.95;;
11490;SDS011;5802;52.832;4.758;2023-12-20T12:11:49;2.63;;;1.00;;
11490;SDS011;5802;52.832;4.758;2023-12-20T12:14:16;2.13;;;0.68;;
11490;SDS011;5802;52.832;4.758;2023-12-20T12:16:44;1.92;;;0.90;;
11490;SDS011;5802;52.832;4.758;2023-12-20T12:19:21;1.90;;;1.08;;
11490;SDS011;5802;52.832;4.758;2023-12-20T12:21:48;2.20;;;0.90;;
11490;SDS011;5802;52.832;4.758;2023-12-20T12:24:19;1.75;;;0.93;;
11490;SDS011;5802;52.832;4.758;2023-12-20T12:26:49;1.70;;;0.80;;
11490;SDS011;5802;52.832;4.758;2023-12-20T12:29:17;1.77;;;1.08;;
11490;SDS011;5802;52.832;4.758;2023-12-20T12:31:44;1.45;;;0.80;;
11490;SDS011;5802;52.832;4.758;2023-12-20T12:34:11;1.25;;;0.65;;
11490;SDS011;5802;52.832;4.758;2023-12-20T12:36:39;1.45;;;0.70;;
11490;SDS011;5802;52.832;4.758;2023-12-20T12:39:06;1.45;;;1.00;;
11490;SDS011;5802;52.832;4.758;2023-12-20T12:41:33;1.67;;;0.63;;
11490;SDS011;5802;52.832;4.758;2023-12-20T12:44:00;1.55;;;0.90;;
11490;SDS011;5802;52.832;4.758;2023-12-20T12:46:27;2.42;;;1.13;;
11490;SDS011;5802;52.832;4.758;2023-12-20T12:48:54;1.00;;;0.63;;
11490;SDS011;5802;52.832;4.758;2023-12-20T12:51:21;2.20;;;0.90;;
11490;SDS011;5802;52.832;4.758;2023-12-20T12:53:49;1.65;;;0.75;;
11490;SDS011;5802;52.832;4.758;2023-12-20T12:56:16;2.10;;;0.88;;
11490;SDS011;5802;52.832;4.758;2023-12-20T12:58:43;1.23;;;0.70;;
11490;SDS011;5802;52.832;4.758;2023-12-20T13:01:10;2.25;;;1.05;;
11490;SDS011;5802;52.832;4.758;2023-12-20T13:03:37;2.72;;;1.10;;
11490;SDS011;5802;52.832;4.758;2023-12-20T13:06:04;1.75;;;1.05;;
11490;SDS011;5802;52.832;4.758;2023-12-20T13:08:33;1.48;;;1.00;;
11490;SDS011;5802;52.832;4.758;2023-12-20T13:11:02;1.83;;;0.93;;
11490;SDS011;5802;52.832;4.758;2023-12-20T13:13:29;1.58;;;0.80;;
11490;SDS011;5802;52.832;4.758;2023-12-20T13:15:56;1.15;;;0.73;;
11490;SDS011;5802;52.832;4.758;2023-12-20T13:18:23;1.15;;;0.70;;
11490;SDS011;5802;52.832;4.758;2023-12-20T13:20:50;1.85;;;0.85;;
11490;SDS011;5802;52.832;4.758;2023-12-20T13:23:17;2.10;;;1.10;;
11490;SDS011;5802;52.832;4.758;2023-12-20T13:25:44;1.98;;;0.90;;
11490;SDS011;5802;52.832;4.758;2023-12-20T13:28:13;1.35;;;0.80;;
11490;SDS011;5802;52.832;4.758;2023-12-20T13:30:40;2.08;;;0.70;;
11490;SDS011;5802;52.832;4.758;2023-12-20T13:33:07;2.55;;;0.75;;
11490;SDS011;5802;52.832;4.758;2023-12-20T13:35:34;2.05;;;0.75;;
11490;SDS011;5802;52.832;4.758;2023-12-20T13:38:00;1.42;;;1.00;;
11490;SDS011;5802;52.832;4.758;2023-12-20T13:40:27;1.30;;;0.77;;
11490;SDS011;5802;52.832;4.758;2023-12-20T13:42:54;1.08;;;0.80;;
11490;SDS011;5802;52.832;4.758;2023-12-20T13:45:22;1.40;;;0.80;;
11490;SDS011;5802;52.832;4.758;2023-12-20T13:47:50;1.45;;;0.90;;
11490;SDS011;5802;52.832;4.758;2023-12-20T13:50:17;1.77;;;1.00;;
11490;SDS011;5802;52.832;4.758;2023-12-20T13:52:44;1.83;;;0.88;;
11490;SDS011;5802;52.832;4.758;2023-12-20T13:55:11;1.88;;;0.73;;
11490;SDS011;5802;52.832;4.758;2023-12-20T13:57:38;1.73;;;0.80;;
11490;SDS011;5802;52.832;4.758;2023-12-20T14:00:06;1.80;;;0.85;;
11490;SDS011;5802;52.832;4.758;2023-12-20T14:02:40;1.63;;;0.98;;
11490;SDS011;5802;52.832;4.758;2023-12-20T14:05:08;1.90;;;0.90;;
11490;SDS011;5802;52.832;4.758;2023-12-20T14:07:35;2.88;;;0.90;;
11490;SDS011;5802;52.832;4.758;2023-12-20T14:10:02;1.02;;;0.60;;
11490;SDS011;5802;52.832;4.758;2023-12-20T14:12:30;1.30;;;0.80;;
11490;SDS011;5802;52.832;4.758;2023-12-20T14:15:00;1.55;;;0.80;;
11490;SDS011;5802;52.832;4.758;2023-12-20T14:17:34;2.08;;;0.90;;
11490;SDS011;5802;52.832;4.758;2023-12-20T14:20:02;2.17;;;0.88;;
11490;SDS011;5802;52.832;4.758;2023-12-20T14:22:30;1.17;;;0.70;;
11490;SDS011;5802;52.832;4.758;2023-12-20T14:24:57;1.83;;;0.70;;
11490;SDS011;5802;52.832;4.758;2023-12-20T14:27:23;1.77;;;0.90;;
11490;SDS011;5802;52.832;4.758;2023-12-20T14:29:52;1.13;;;0.70;;
11490;SDS011;5802;52.832;4.758;2023-12-20T14:32:19;1.67;;;0.80;;
11490;SDS011;5802;52.832;4.758;2023-12-20T14:34:46;1.45;;;0.80;;
11490;SDS011;5802;52.832;4.758;2023-12-20T14:37:14;2.13;;;0.95;;
11490;SDS011;5802;52.832;4.758;2023-12-20T14:39:42;1.52;;;0.85;;
11490;SDS011;5802;52.832;4.758;2023-12-20T14:42:09;2.38;;;1.02;;
11490;SDS011;5802;52.832;4.758;2023-12-20T14:44:38;1.75;;;0.80;;
11490;SDS011;5802;52.832;4.758;2023-12-20T14:47:05;1.25;;;0.77;;
11490;SDS011;5802;52.832;4.758;2023-12-20T14:49:33;1.75;;;0.77;;
11490;SDS011;5802;52.832;4.758;2023-12-20T14:52:00;1.15;;;0.70;;
11490;SDS011;5802;52.832;4.758;2023-12-20T14:54:28;1.15;;;0.70;;
11490;SDS011;5802;52.832;4.758;2023-12-20T14:56:55;1.23;;;0.70;;
11490;SDS011;5802;52.832;4.758;2023-12-20T14:59:23;1.73;;;0.88;;
11490;SDS011;5802;52.832;4.758;2023-12-20T15:01:50;1.60;;;0.80;;